Time;durP1;ratioP1;P1;durP2;ratioP2;P2;SDS_P1;SDS_P2;PMS_P1;PMS_P2;Temp;Humidity;BMP_temperature;BMP_pressure;BME280_temperature;BME280_humidity;BME280_pressure;Samples;Min_cycle;Max_cycle;Signal;HPM_P1;HPM_P2
2022/05/14 00:00:24;;;;;;;;;;;;;;;15.02;52.97;101534.63;5071813;28;19958;-49
2022/05/14 00:02:50;;;;;;;;;;;;;;;15.00;52.88;101532.06;5064527;28;19953;-47
2022/05/14 00:05:17;;;;;;;;;;;;;;;14.97;53.03;101529.63;5068086;28;19921;-48
2022/05/14 00:07:42;;;;;;;;;;;;;;;14.97;52.99;101523.47;5062663;28;19920;-47
2022/05/14 00:10:08;;;;;;;;;;;;;;;14.97;53.08;101518.16;5064679;28;19932;-48
2022/05/14 00:15:17;;;;;;;;;;;;;;;14.94;52.94;101519.22;5075705;28;19923;-46
2022/05/14 00:17:42;;;;;;;;;;;;;;;14.98;52.97;101525.19;5077778;28;19916;-47
2022/05/14 00:20:08;;;;;;;;;;;;;;;15.01;53.02;101533.78;5076871;28;19925;-47
2022/05/14 00:22:33;;;;;;;;;;;;;;;15.03;52.92;101533.69;5070189;28;19964;-48
2022/05/14 00:24:59;;;;;;;;;;;;;;;15.03;52.98;101526.56;5073691;28;20269;-49
2022/05/14 00:27:24;;;;;;;;;;;;;;;15.02;52.95;101522.22;5073132;28;20379;-47
2022/05/14 00:29:50;;;;;;;;;;;;;;;15.01;52.97;101517.88;5075765;28;19923;-49
2022/05/14 00:32:15;;;;;;;;;;;;;;;15.01;53.00;101524.97;5069543;28;19920;-47
2022/05/14 00:34:40;;;;;;;;;;;;;;;14.99;53.22;101517.13;5077049;28;20372;-48
2022/05/14 00:37:05;;;;;;;;;;;;;;;14.97;53.06;101516.38;5073018;28;19920;-44
2022/05/14 00:39:31;;;;;;;;;;;;;;;14.96;53.24;101516.47;5071141;28;19924;-44
2022/05/14 00:41:56;;;;;;;;;;;;;;;14.93;53.24;101515.72;5067120;28;19924;-45
2022/05/14 00:44:21;;;;;;;;;;;;;;;14.93;53.30;101513.06;5070350;28;19924;-44
2022/05/14 00:46:52;;;;;;;;;;;;;;;14.94;53.15;101517.41;5069623;28;19939;-45
2022/05/14 00:49:19;;;;;;;;;;;;;;;14.93;53.29;101515.72;5071371;28;19943;-45
2022/05/14 00:51:46;;;;;;;;;;;;;;;14.91;53.34;101512.31;5069523;28;19971;-46
2022/05/14 00:54:14;;;;;;;;;;;;;;;14.89;53.21;101508.94;5077576;28;19913;-45
2022/05/14 00:56:41;;;;;;;;;;;;;;;14.88;53.45;101517.81;5068208;28;20380;-45
2022/05/14 00:59:06;;;;;;;;;;;;;;;14.86;53.48;101518.84;5073308;28;19918;-44
2022/05/14 01:01:31;;;;;;;;;;;;;;;14.85;53.50;101519.78;5070211;28;19987;-45
2022/05/14 01:03:57;;;;;;;;;;;;;;;14.82;53.58;101510.25;5074434;28;19925;-48
2022/05/14 01:06:22;;;;;;;;;;;;;;;14.81;53.57;101508.56;5068147;28;19940;-45
2022/05/14 01:08:48;;;;;;;;;;;;;;;14.82;53.67;101497.00;5070999;28;19948;-44
2022/05/14 01:11:14;;;;;;;;;;;;;;;14.83;53.41;101504.00;5069145;28;19920;-47
2022/05/14 01:13:39;;;;;;;;;;;;;;;14.83;53.59;101508.44;5069216;28;19950;-48
2022/05/14 01:16:05;;;;;;;;;;;;;;;14.83;53.55;101500.50;5076039;28;19927;-47
2022/05/14 01:18:32;;;;;;;;;;;;;;;14.83;53.57;101501.34;5072584;28;19955;-44
2022/05/14 01:21:04;;;;;;;;;;;;;;;14.83;53.59;101509.31;5062858;28;19939;-45
2022/05/14 01:23:29;;;;;;;;;;;;;;;14.85;53.70;101503.91;5064653;28;19929;-45
2022/05/14 01:26:28;;;;;;;;;;;;;;;14.85;53.80;101507.41;5075123;28;19920;-47
2022/05/14 01:28:55;;;;;;;;;;;;;;;14.86;53.82;101506.47;5068571;28;19963;-46
2022/05/14 01:31:20;;;;;;;;;;;;;;;14.86;53.72;101503.81;5071957;28;19917;-45
2022/05/14 01:33:46;;;;;;;;;;;;;;;14.85;53.65;101507.41;5068824;28;19965;-48
2022/05/14 01:36:11;;;;;;;;;;;;;;;14.83;53.56;101504.00;5066097;28;20357;-47
2022/05/14 01:38:37;;;;;;;;;;;;;;;14.83;53.87;101501.34;5072703;28;19923;-46
2022/05/14 01:41:02;;;;;;;;;;;;;;;14.82;53.82;101499.66;5064719;28;19924;-47
2022/05/14 01:43:28;;;;;;;;;;;;;;;14.84;53.89;101512.78;5072057;28;19999;-48
2022/05/14 01:45:53;;;;;;;;;;;;;;;14.83;53.72;101511.97;5070963;28;19924;-47
2022/05/14 01:48:19;;;;;;;;;;;;;;;14.82;53.86;101517.38;5064409;28;19982;-45
2022/05/14 01:50:44;;;;;;;;;;;;;;;14.79;53.74;101515.75;5076671;28;19928;-47
2022/05/14 01:53:10;;;;;;;;;;;;;;;14.76;53.73;101507.97;5069746;28;19949;-47
2022/05/14 01:55:35;;;;;;;;;;;;;;;14.73;54.09;101508.19;5074709;28;19912;-45
2022/05/14 01:58:36;;;;;;;;;;;;;;;14.70;54.08;101508.38;5061215;28;19925;-47
2022/05/14 02:00:46;;;;;;;;;;;;;;;14.70;54.17;101511.03;5068247;28;20331;-47
2022/05/14 02:03:11;;;;;;;;;;;;;;;14.69;54.23;101504.03;5069024;28;19920;-45
2022/05/14 02:05:36;;;;;;;;;;;;;;;14.70;54.17;101511.03;5063652;28;19944;-46
2022/05/14 02:08:02;;;;;;;;;;;;;;;14.70;54.14;101505.75;5072236;28;20391;-44
2022/05/14 02:10:27;;;;;;;;;;;;;;;14.68;54.21;101510.28;5077273;28;20003;-45
2022/05/14 02:12:52;;;;;;;;;;;;;;;14.67;54.38;101503.25;5081150;28;19923;-46
2022/05/14 02:15:18;;;;;;;;;;;;;;;14.67;54.30;101504.09;5069551;28;19924;-47
2022/05/14 02:17:43;;;;;;;;;;;;;;;14.67;54.30;101496.13;5071685;28;19981;-45
2022/05/14 02:20:08;;;;;;;;;;;;;;;14.68;54.23;101499.69;5071250;28;20384;-44
2022/05/14 02:22:33;;;;;;;;;;;;;;;14.64;54.33;101494.53;5073299;28;19923;-45
2022/05/14 02:24:59;;;;;;;;;;;;;;;14.62;54.30;101496.44;5069730;28;19931;-44
2022/05/14 02:27:24;;;;;;;;;;;;;;;14.60;54.44;101503.63;5064881;28;19968;-45
2022/05/14 02:29:54;;;;;;;;;;;;;;;14.60;54.38;101506.25;5071482;28;19928;-44
2022/05/14 02:32:20;;;;;;;;;;;;;;;14.58;54.50;101505.53;5063758;28;20027;-45
2022/05/14 02:34:46;;;;;;;;;;;;;;;14.57;54.64;101506.47;5071561;28;20014;-45
2022/05/14 02:37:11;;;;;;;;;;;;;;;14.55;54.48;101500.44;5070402;28;20428;-45
2022/05/14 02:39:37;;;;;;;;;;;;;;;14.52;54.63;101500.63;5067752;28;19936;-48
2022/05/14 02:42:03;;;;;;;;;;;;;;;14.52;54.61;101495.31;5070289;28;19916;-46
2022/05/14 02:44:28;;;;;;;;;;;;;;;14.51;54.86;101490.13;5069250;28;20436;-45
2022/05/14 02:46:53;;;;;;;;;;;;;;;14.48;54.91;101484.06;5070037;28;19921;-45
2022/05/14 02:49:18;;;;;;;;;;;;;;;14.46;54.95;101487.75;5068021;28;19928;-45
2022/05/14 02:51:44;;;;;;;;;;;;;;;14.45;55.06;101493.97;5067601;28;19920;-44
2022/05/14 02:54:09;;;;;;;;;;;;;;;14.44;54.90;101482.56;5066556;28;19929;-47
2022/05/14 02:56:34;;;;;;;;;;;;;;;14.43;54.85;101475.56;5072820;28;20284;-45
2022/05/14 02:59:09;;;;;;;;;;;;;;;14.42;55.05;101484.44;5066453;28;19924;-45
2022/05/14 03:01:36;;;;;;;;;;;;;;;14.40;54.99;101483.69;5068195;28;19977;-45
2022/05/14 03:04:01;;;;;;;;;;;;;;;14.39;54.80;101483.78;5076459;28;19932;-45
2022/05/14 03:06:27;;;;;;;;;;;;;;;14.33;54.89;101475.28;5072679;28;19916;-45
2022/05/14 03:08:53;;;;;;;;;;;;;;;14.27;55.00;101486.25;5070759;28;20383;-46
2022/05/14 03:11:18;;;;;;;;;;;;;;;14.26;55.05;101487.19;5077546;28;19924;-45
2022/05/14 03:13:44;;;;;;;;;;;;;;;14.23;55.14;101483.88;5071085;28;19916;-45
2022/05/14 03:16:10;;;;;;;;;;;;;;;14.16;55.00;101478.09;5065108;28;19927;-44
2022/05/14 03:18:35;;;;;;;;;;;;;;;14.11;55.18;101477.56;5070878;28;19917;-46
2022/05/14 03:21:00;;;;;;;;;;;;;;;14.07;55.22;101478.69;5071089;28;20319;-46
2022/05/14 03:23:26;;;;;;;;;;;;;;;14.00;55.00;101479.03;5070049;28;20287;-45
2022/05/14 03:25:51;;;;;;;;;;;;;;;13.97;54.97;101484.53;5069562;28;20300;-45
2022/05/14 03:28:17;;;;;;;;;;;;;;;13.91;55.16;101484.06;5068989;28;19931;-48
2022/05/14 03:30:42;;;;;;;;;;;;;;;13.87;55.46;101483.38;5073852;28;19916;-45
2022/05/14 03:33:08;;;;;;;;;;;;;;;13.85;55.36;101479.97;5069485;28;19916;-44
2022/05/14 03:35:33;;;;;;;;;;;;;;;13.82;55.26;101480.16;5070661;28;19966;-46
2022/05/14 03:37:59;;;;;;;;;;;;;;;13.75;55.51;101474.41;5068228;28;19928;-48
2022/05/14 03:40:24;;;;;;;;;;;;;;;13.69;55.65;101475.59;5069655;28;19923;-45
2022/05/14 03:42:49;;;;;;;;;;;;;;;13.63;55.70;101483.03;5071996;28;20050;-44
2022/05/14 03:45:15;;;;;;;;;;;;;;;13.57;56.04;101489.53;5068946;28;20368;-45
2022/05/14 03:47:40;;;;;;;;;;;;;;;13.54;55.93;101484.41;5072388;28;20587;-44
2022/05/14 03:50:06;;;;;;;;;;;;;;;13.54;55.99;101484.41;5069625;28;19916;-47
2022/05/14 03:52:31;;;;;;;;;;;;;;;13.50;56.03;101482.91;5069771;28;19917;-45
2022/05/14 03:54:56;;;;;;;;;;;;;;;13.46;56.22;101489.31;5069936;28;19916;-45
2022/05/14 03:57:22;;;;;;;;;;;;;;;13.42;56.30;101491.28;5070558;28;19921;-45
2022/05/14 03:59:47;;;;;;;;;;;;;;;13.39;56.18;101488.78;5068319;28;19919;-44
2022/05/14 04:02:12;;;;;;;;;;;;;;;13.37;56.24;101491.53;5066989;28;19912;-49
2022/05/14 04:04:38;;;;;;;13.33;4.90;;;;;;;13.38;57.40;101490.59;5059252;28;20478;-47
2022/05/14 04:07:04;;;;;;;7.75;4.03;;;;;;;13.34;57.52;101483.78;5062846;28;20025;-44
2022/05/14 04:09:29;;;;;;;6.57;4.43;;;;;;;13.35;57.70;101485.47;5069275;28;20584;-45
2022/05/14 04:11:55;;;;;;;5.55;3.30;;;;;;;13.35;57.84;101488.13;5070099;28;20453;-44
2022/05/14 04:14:21;;;;;;;6.22;2.85;;;;;;;13.37;58.09;101491.53;5067080;28;20414;-48
2022/05/14 04:16:46;;;;;;;6.47;2.92;;;;;;;13.40;58.25;101495.81;5068873;28;20051;-45
2022/05/14 04:19:12;;;;;;;6.10;3.30;;;;;;;13.44;58.20;101497.34;5069607;28;20416;-46
2022/05/14 04:21:38;;;;;;;8.95;3.30;;;;;;;13.47;58.35;101501.59;5070088;28;20070;-45
2022/05/14 04:24:04;;;;;;;4.68;2.90;;;;;;;13.50;58.21;101501.44;5068689;28;20059;-48
2022/05/14 04:26:30;;;;;;;7.65;3.35;;;;;;;13.54;58.38;101501.16;5066774;28;20029;-44
2022/05/14 04:28:55;;;;;;;6.05;3.08;;;;;;;13.54;58.33;101487.94;5067971;28;20036;-44
2022/05/14 04:31:21;;;;;;;6.45;3.53;;;;;;;13.59;58.44;101492.09;5069035;28;20536;-44
2022/05/14 04:33:47;;;;;;;6.03;3.25;;;;;;;13.64;58.47;101487.38;5070271;28;20101;-43
2022/05/14 04:36:14;;;;;;;8.57;3.65;;;;;;;13.69;58.36;101488.81;5069741;28;20407;-45
2022/05/14 04:38:40;;;;;;;8.73;3.88;;;;;;;13.74;58.38;101479.75;5069961;28;20020;-44
2022/05/14 04:41:05;;;;;;;7.95;3.15;;;;;;;13.78;58.36;101483.94;5067704;28;20035;-44
2022/05/14 04:43:31;;;;;;;9.13;3.30;;;;;;;13.83;58.32;101489.81;5070118;28;20036;-44
2022/05/14 04:45:57;;;;;;;10.65;3.30;;;;;;;13.87;58.20;101493.94;5063394;28;20025;-44
2022/05/14 04:48:22;;;;;;;10.15;3.53;;;;;;;13.93;58.36;101498.88;5070252;28;20020;-44
2022/05/14 04:50:48;;;;;;;9.00;3.15;;;;;;;13.98;58.24;101491.53;5068439;28;20077;-45
2022/05/14 04:53:14;;;;;;;9.52;3.30;;;;;;;14.02;58.15;101495.69;5067549;28;20047;-47
2022/05/14 04:55:39;;;;;;;9.45;3.42;;;;;;;14.08;58.04;101501.56;5066484;28;20430;-44
2022/05/14 04:58:08;;;;;;;6.93;3.28;;;;;;;14.11;57.88;101494.28;5068923;28;20021;-44
2022/05/14 05:00:36;;;;;;;9.95;3.33;;;;;;;14.11;57.78;101498.72;5065503;28;20032;-50
2022/05/14 05:03:17;;;;;;;6.45;3.03;;;;;;;14.12;58.06;101506.56;5065093;28;20089;-50
2022/05/14 05:05:51;;;;;;;7.93;3.28;;;;;;;14.15;57.87;101505.50;5066620;28;20114;-49
2022/05/14 05:08:18;;;;;;;12.60;3.40;;;;;;;14.18;57.81;101497.41;5070045;28;20017;-49
2022/05/14 05:10:44;;;;;;;8.52;3.10;;;;;;;14.24;57.72;101506.75;5064938;28;20441;-46
2022/05/14 05:13:16;;;;;;;7.38;2.85;;;;;;;14.27;57.47;101510.09;5070725;28;20066;-46
2022/05/14 05:15:41;;;;;;;9.63;3.53;;;;;;;14.30;57.38;101523.09;5070529;28;20136;-46
2022/05/14 05:18:08;;;;;;;6.15;2.83;;;;;;;14.33;57.15;101522.94;5072644;28;20100;-46
2022/05/14 05:20:35;;;;;;;13.57;3.55;;;;;;;14.38;56.97;101520.00;5068619;28;20054;-44
2022/05/14 05:23:01;;;;;;;12.10;3.33;;;;;;;14.42;56.81;101518.03;5068566;28;20506;-45
2022/05/14 05:25:27;;;;;;;8.70;2.83;;;;;;;14.44;56.82;101511.69;5063116;28;20077;-46
2022/05/14 05:27:53;;;;;;;6.40;2.92;;;;;;;14.48;56.70;101520.28;5073807;28;20028;-46
2022/05/14 05:30:18;;;;;;;7.57;3.15;;;;;;;14.48;56.43;101521.16;5071593;28;20041;-44
2022/05/14 05:32:44;;;;;;;5.65;3.08;;;;;;;14.54;56.37;101524.34;5075533;28;20039;-44
2022/05/14 05:35:10;;;;;;;8.98;3.05;;;;;;;14.57;56.55;101517.06;5065779;28;20032;-52
2022/05/14 05:37:35;;;;;;;5.68;2.72;;;;;;;14.60;56.36;101524.81;5069804;28;20059;-46
2022/05/14 05:40:01;;;;;;;11.77;2.92;;;;;;;14.63;56.01;101529.91;5074984;28;20032;-46
2022/05/14 05:42:27;;;;;;;6.63;2.90;;;;;;;14.62;55.98;101522.91;5072740;28;20036;-47
2022/05/14 05:44:52;;;;;;;9.45;3.03;;;;;;;14.64;56.13;101531.63;5061594;28;20489;-46
2022/05/14 05:47:18;;;;;;;6.28;2.58;;;;;;;14.60;56.21;101548.63;5062044;28;20036;-46
2022/05/14 05:49:44;;;;;;;6.80;2.70;;;;;;;14.56;56.18;101541.84;5067007;28;20021;-46
2022/05/14 05:52:11;;;;;;;8.15;2.95;;;;;;;14.51;56.13;101535.16;5066857;28;20654;-45
2022/05/14 05:57:34;;;;;;;9.18;2.83;;;;;;;14.55;56.21;101532.22;5059635;28;20085;-44
2022/05/14 06:00:01;;;;;;;11.65;3.00;;;;;;;14.55;56.16;101529.56;5053964;28;20139;-49
2022/05/14 06:02:26;;;;;;;9.70;2.75;;;;;;;14.61;56.03;101528.31;5064888;28;20029;-48
2022/05/14 06:04:52;;;;;;;6.45;2.33;;;;;;;14.70;55.75;101529.59;5062071;28;20033;-45
2022/05/14 06:07:18;;;;;;;7.68;2.90;;;;;;;14.77;55.69;101526.44;5064983;28;20094;-47
2022/05/14 06:09:43;;;;;;;11.45;2.60;;;;;;;14.81;55.37;101527.09;5072335;28;20407;-48
2022/05/14 06:12:09;;;;;;;10.25;3.92;;;;;;;14.89;55.39;101531.91;5060861;28;20782;-45
2022/05/14 06:14:35;;;;;;;9.50;3.05;;;;;;;15.02;55.12;101539.94;5070330;28;20047;-48
2022/05/14 06:17:00;;;;;;;5.90;2.50;;;;;;;15.10;54.84;101537.63;5070020;28;20419;-47
2022/05/14 06:19:25;;;;;;;14.45;2.95;;;;;;;15.18;54.51;101530.06;5069530;28;20040;-49
2022/05/14 06:21:51;;;;;;;7.63;2.78;;;;;;;15.18;54.68;101548.63;5068782;28;20032;-48
2022/05/14 06:24:16;;;;;;;14.80;2.85;;;;;;;15.24;54.34;101540.25;5071099;28;20029;-48
2022/05/14 06:26:42;;;;;;;5.45;2.60;;;;;;;15.26;54.27;101541.94;5068546;28;20024;-47
2022/05/14 06:29:08;;;;;;;10.27;2.92;;;;;;;15.19;54.54;101539.72;5069263;28;20404;-47
2022/05/14 06:31:34;;;;;;;9.63;2.72;;;;;;;15.21;54.55;101539.59;5073642;28;20036;-47
2022/05/14 06:33:59;;;;;;;13.40;2.78;;;;;;;15.24;54.33;101534.94;5068601;28;20024;-47
2022/05/14 06:36:25;;;;;;;8.18;2.85;;;;;;;15.30;54.54;101535.50;5068865;28;20430;-50
2022/05/14 06:38:51;;;;;;;9.50;3.20;;;;;;;15.31;54.48;101550.47;5067627;28;20055;-48
2022/05/14 06:41:16;;;;;;;8.30;2.85;;;;;;;15.34;54.48;101544.97;5070544;28;20392;-47
2022/05/14 06:43:42;;;;;;;6.95;2.75;;;;;;;15.30;54.28;101544.28;5069009;28;20540;-51
2022/05/14 06:46:08;;;;;;;10.98;3.42;;;;;;;15.34;54.16;101551.09;5072310;28;20044;-47
2022/05/14 06:48:34;;;;;;;14.88;2.70;;;;;;;15.41;54.11;101551.56;5069514;28;20024;-48
2022/05/14 06:51:04;;;;;;;10.15;2.80;;;;;;;15.36;54.06;101548.34;5074116;28;20028;-47
2022/05/14 06:53:30;;;;;;;10.05;2.80;;;;;;;15.36;54.16;101553.66;5070882;28;20052;-47
2022/05/14 06:55:59;;;;;;;5.80;2.38;;;;;;;15.34;54.34;101555.56;5070758;28;20068;-46
2022/05/14 06:58:32;;;;;;;5.60;2.50;;;;;;;15.37;54.28;101552.69;5069850;28;20027;-48
2022/05/14 07:00:58;;;;;;;7.95;3.05;;;;;;;15.34;54.31;101555.56;5067149;28;20035;-48
2022/05/14 07:08:53;;;;;;;10.30;3.00;;;;;;;15.39;54.10;101566.72;5073102;28;20057;-47
2022/05/14 07:11:18;;;;;;;11.60;2.97;;;;;;;15.37;54.20;101566.81;5073379;28;20078;-46
2022/05/14 07:13:44;;;;;;;8.80;3.25;;;;;;;15.40;54.31;101560.47;5068449;28;20039;-47
2022/05/14 07:16:10;;;;;;;7.47;2.70;;;;;;;15.42;54.25;101566.53;5070972;28;20024;-46
2022/05/14 07:18:35;;;;;;;8.38;3.28;;;;;;;15.44;53.96;101556.66;5072222;28;20027;-49
2022/05/14 07:21:01;;;;;;;12.35;3.53;;;;;;;15.46;53.90;101559.19;5066869;28;20078;-47
2022/05/14 07:23:26;;;;;;;10.88;3.00;;;;;;;15.48;54.16;101552.88;5070577;28;20028;-45
2022/05/14 07:25:52;;;;;;;11.07;2.83;;;;;;;15.51;54.17;101552.63;5071859;28;20078;-47
2022/05/14 07:28:17;;;;;;;11.23;3.35;;;;;;;15.57;53.99;101567.31;5069779;28;20101;-45
2022/05/14 07:30:43;;;;;;;11.52;2.60;;;;;;;15.64;53.98;101573.06;5072113;28;20472;-46
2022/05/14 07:33:09;;;;;;;8.05;2.83;;;;;;;15.70;53.63;101557.59;5070010;28;20024;-46
2022/05/14 07:35:35;;;;;;;9.60;2.85;;;;;;;15.72;53.47;101564.63;5069099;28;20024;-47
2022/05/14 07:38:05;;;;;;;7.60;2.72;;;;;;;15.66;53.55;101556.09;5070449;28;20028;-46
2022/05/14 07:40:33;;;;;;;10.13;2.90;;;;;;;15.65;53.56;101564.16;5071357;28;20090;-47
2022/05/14 07:43:06;;;;;;;11.55;2.80;;;;;;;15.67;53.71;101565.75;5068566;28;20036;-45
2022/05/14 07:45:34;;;;;;;11.18;2.88;;;;;;;15.68;54.10;101574.56;5070390;28;20028;-47
2022/05/14 07:48:04;;;;;;;9.63;2.72;;;;;;;15.72;53.92;101567.25;5069237;28;20503;-47
2022/05/14 07:50:29;;;;;;;9.67;3.00;;;;;;;15.75;54.02;101570.56;5070110;28;20021;-46
2022/05/14 07:52:56;;;;;;;10.82;2.90;;;;;;;15.77;53.65;101558.03;5071320;28;20052;-45
2022/05/14 07:55:21;;;;;;;9.68;2.90;;;;;;;15.79;53.73;101561.44;5069693;28;20013;-47
2022/05/14 07:57:47;;;;;;;7.00;2.63;;;;;;;15.81;53.94;101572.78;5069097;28;20408;-49
2022/05/14 08:00:13;;;;;;;7.47;2.97;;;;;;;15.86;53.59;101553.97;5068988;28;20027;-48
2022/05/14 08:02:42;;;;;;;10.93;2.70;;;;;;;15.85;53.95;101558.41;5072035;28;20028;-47
2022/05/14 08:05:09;;;;;;;6.90;2.77;;;;;;;15.80;53.77;101560.50;5070559;28;20103;-49
2022/05/14 08:07:35;;;;;;;15.95;3.38;;;;;;;15.80;53.66;101547.22;5071695;28;20263;-48
2022/05/14 08:10:03;;;;;;;10.05;2.95;;;;;;;15.89;53.69;101550.22;5069680;28;20111;-47
2022/05/14 08:12:38;;;;;;;9.50;3.45;;;;;;;15.96;53.81;101548.84;5069295;28;20050;-46
2022/05/14 08:15:06;;;;;;;9.73;3.10;;;;;;;16.02;53.52;101551.09;5070554;28;20020;-46
2022/05/14 08:17:32;;;;;;;7.97;2.83;;;;;;;16.04;53.56;101550.97;5070205;28;20024;-50
2022/05/14 08:19:57;;;;;;;6.85;2.70;;;;;;;16.09;53.47;101547.09;5071171;28;20024;-47
2022/05/14 08:25:07;;;;;;;7.43;3.00;;;;;;;16.23;53.42;101542.63;5067592;28;20047;-48
2022/05/14 08:27:44;;;;;;;9.23;3.08;;;;;;;16.27;53.27;101536.13;5068850;28;20032;-49
2022/05/14 08:30:30;;;;;;;11.93;2.72;;;;;;;16.35;53.11;101540.91;5067216;28;20041;-49
2022/05/14 08:32:57;;;;;;;10.70;3.10;;;;;;;16.37;52.87;101529.25;5070146;28;20522;-47
2022/05/14 08:35:23;;;;;;;10.85;3.00;;;;;;;16.42;52.81;101543.03;5071192;28;20031;-50
2022/05/14 08:37:53;;;;;;;10.88;3.30;;;;;;;16.45;52.70;101541.97;5070554;28;20498;-46
2022/05/14 08:40:21;;;;;;;12.25;3.08;;;;;;;16.46;52.32;101554.31;5069590;28;20119;-47
2022/05/14 08:42:53;;;;;;;12.73;3.38;;;;;;;16.45;52.38;101541.97;5068388;28;20032;-45
2022/05/14 08:45:24;;;;;;;12.63;2.80;;;;;;;16.51;52.62;101546.84;5071165;28;20036;-48
2022/05/14 08:47:59;;;;;;;10.30;3.63;;;;;;;16.55;52.31;101545.69;5072208;28;20028;-48
2022/05/14 08:50:39;;;;;;;11.73;3.10;;;;;;;16.61;51.78;101555.88;5073404;28;20543;-49
2022/05/14 08:53:09;;;;;;;11.98;3.10;;;;;;;16.65;51.81;101556.50;5070376;28;21110;-45
2022/05/14 08:56:16;;;;;;;14.40;2.92;;;;;;;16.74;51.68;101553.19;5071600;28;20036;-48
2022/05/14 08:58:57;;;;;;;12.60;2.85;;;;;;;16.82;51.24;101550.00;5063382;28;20051;-46
2022/05/14 09:01:26;;;;;;;11.77;3.13;;;;;;;16.86;50.92;101553.31;5071727;28;20043;-47
2022/05/14 09:03:52;;;;;;;8.50;2.72;;;;;;;16.91;50.68;101557.31;5074591;28;20024;-49
2022/05/14 09:06:18;;;;;;;10.75;2.60;;;;;;;16.92;50.50;101550.19;5073160;28;20672;-47
2022/05/14 09:08:43;;;;;;;8.55;2.50;;;;;;;16.98;50.59;101559.56;5073675;28;20029;-47
2022/05/14 09:11:28;;;;;;;12.27;2.80;;;;;;;17.01;50.28;101551.38;5072250;28;20488;-47
2022/05/14 09:13:57;;;;;;;11.80;2.53;;;;;;;17.10;50.22;101563.16;5071670;28;20031;-45
2022/05/14 09:16:33;;;;;;;9.93;2.60;;;;;;;17.17;49.99;101565.25;5072979;28;20024;-46
2022/05/14 09:18:59;;;;;;;9.82;2.85;;;;;;;17.23;49.06;101569.25;5072658;28;20029;-45
2022/05/14 09:21:29;;;;;;;11.50;2.70;;;;;;;17.26;48.83;101568.19;5071952;28;20031;-47
2022/05/14 09:23:56;;;;;;;10.70;2.60;;;;;;;17.27;48.64;101565.44;5071656;28;20400;-46
2022/05/14 09:26:36;;;;;;;13.73;3.35;;;;;;;17.27;48.48;101561.91;5073182;28;20107;-48
2022/05/14 09:29:29;;;;;;;12.23;3.33;;;;;;;17.29;48.19;101567.97;5069859;28;20028;-46
2022/05/14 09:32:31;;;;;;;10.60;2.50;;;;;;;17.30;48.29;101562.56;5065652;28;20473;-47
2022/05/14 09:35:24;;;;;;;11.60;2.60;;;;;;;17.33;48.16;101580.91;5024899;28;20017;-46
2022/05/14 09:37:51;;;;;;;11.10;3.33;;;;;;;17.39;48.22;101568.16;5066740;28;20036;-47
2022/05/14 09:40:24;;;;;;;12.38;2.70;;;;;;;17.42;47.95;101558.13;5065840;28;20067;-47
2022/05/14 09:42:55;;;;;;;18.13;3.20;;;;;;;17.48;47.98;101572.78;5068956;28;20575;-46
2022/05/14 09:45:33;;;;;;;16.67;2.75;;;;;;;17.56;47.99;101565.09;5065604;28;20488;-47
2022/05/14 09:48:10;;;;;;;10.32;2.70;;;;;;;17.61;47.39;101573.59;5071553;28;20037;-48
2022/05/14 09:50:35;;;;;;;10.52;2.92;;;;;;;17.65;47.43;101575.03;5069516;28;20020;-48
2022/05/14 09:53:04;;;;;;;12.02;2.75;;;;;;;17.72;47.07;101585.22;5071583;28;20035;-48
2022/05/14 09:56:04;;;;;;;12.63;3.15;;;;;;;17.73;47.00;101587.75;5071030;28;20048;-47
2022/05/14 09:58:42;;;;;;;10.93;2.60;;;;;;;17.74;47.02;101570.84;5047392;28;20068;-47
2022/05/14 10:01:14;;;;;;;10.77;2.78;;;;;;;17.81;47.10;101579.22;5075069;28;20027;-47
2022/05/14 10:04:14;;;;;;;11.00;2.42;;;;;;;17.88;46.87;101579.59;5070608;28;20021;-49
2022/05/14 10:07:09;;;;;;;13.88;2.50;;;;;;;17.92;46.70;101576.56;5070288;28;20029;-47
2022/05/14 10:09:42;;;;;;;13.32;2.88;;;;;;;17.97;46.82;101579.78;5048843;28;20055;-48
2022/05/14 10:12:34;;;;;;;13.50;3.00;;;;;;;18.03;46.41;101597.09;5070532;28;20066;-49
2022/05/14 10:15:02;;;;;;;13.70;3.22;;;;;;;18.09;46.16;101588.66;5072633;28;20016;-45
2022/05/14 10:17:40;;;;;;;12.57;3.42;;;;;;;18.13;46.17;101589.25;5070950;28;20384;-48
2022/05/14 10:20:26;;;;;;;13.55;3.20;;;;;;;18.13;45.99;101578.59;5069907;28;20029;-47
2022/05/14 10:29:07;;;;;;;13.57;2.72;;;;;;;18.16;45.46;101582.84;5073061;28;20176;-47
2022/05/14 10:31:43;;;;;;;9.10;2.60;;;;;;;18.18;45.47;101576.44;5070957;28;20028;-47
2022/05/14 10:34:16;;;;;;;13.20;3.35;;;;;;;18.19;45.31;101579.94;5069750;28;20025;-46
2022/05/14 10:36:42;;;;;;;9.38;2.70;;;;;;;18.19;45.34;101582.59;5069288;28;20069;-48
2022/05/14 10:39:15;;;;;;;10.13;2.70;;;;;;;18.18;44.80;101580.91;5067682;28;20032;-47
2022/05/14 10:41:45;;;;;;;15.32;3.22;;;;;;;18.18;44.94;101576.44;5067026;28;20027;-46
2022/05/14 10:44:16;;;;;;;;;;;;;;;18.24;45.17;101575.13;5072977;28;20044;-47
2022/05/14 10:46:46;;;;;;;11.00;2.45;;;;;;;18.33;45.02;101576.22;5071368;28;19913;-47
2022/05/14 10:49:20;;;;;;;15.05;3.03;;;;;;;18.38;44.88;101566.91;5071403;28;20028;-46
2022/05/14 10:51:50;;;;;;;12.65;3.10;;;;;;;18.39;44.86;101602.38;5069716;28;20036;-46
2022/05/14 10:54:18;;;;;;;;;;;;;;;18.38;44.97;101571.38;5068202;28;20028;-48
2022/05/14 10:57:03;;;;;;;10.13;2.58;;;;;;;18.32;45.02;101571.88;5069936;28;19947;-51
2022/05/14 10:59:46;;;;;;;11.07;2.90;;;;;;;18.31;44.75;101573.66;5070253;28;20217;-48
2022/05/14 11:02:12;;;;;;;8.98;2.47;;;;;;;18.34;44.43;101583.25;5071040;28;20032;-47
2022/05/14 11:04:40;;;;;;;7.70;2.35;;;;;;;18.34;44.10;101602.75;5069498;28;20039;-46
2022/05/14 11:07:11;;;;;;;11.77;2.90;;;;;;;18.25;43.65;101577.66;5069190;28;20036;-46
2022/05/14 11:09:43;;;;;;;10.32;2.47;;;;;;;18.25;43.72;101572.31;5071375;28;20384;-51
2022/05/14 11:12:14;;;;;;;10.15;2.53;;;;;;;18.28;43.75;101573.94;5069459;28;20033;-47
2022/05/14 11:14:43;;;;;;;11.05;2.72;;;;;;;18.34;43.85;101583.25;5071435;28;20016;-47
2022/05/14 11:17:21;;;;;;;12.35;2.83;;;;;;;18.33;43.40;101581.56;5072200;28;20117;-47
2022/05/14 11:19:47;;;;;;;11.35;3.22;;;;;;;18.33;43.70;101578.88;5069782;28;20021;-47
2022/05/14 11:22:27;;;;;;;10.60;2.58;;;;;;;18.37;43.52;101583.03;5069189;28;20048;-50
2022/05/14 11:24:54;;;;;;;9.68;2.50;;;;;;;18.45;43.81;101577.94;5066944;28;20036;-48
2022/05/14 11:27:34;;;;;;;9.15;2.50;;;;;;;18.51;43.56;101582.78;5070768;28;20025;-48
2022/05/14 11:30:07;;;;;;;10.55;2.70;;;;;;;18.64;43.52;101600.47;5069922;28;20031;-48
2022/05/14 11:32:50;;;;;;;11.10;2.97;;;;;;;18.68;43.12;101593.94;5072139;28;20028;-46
2022/05/14 11:35:17;;;;;;;11.85;3.17;;;;;;;18.72;43.32;101584.72;5073375;28;20016;-47
2022/05/14 11:37:50;;;;;;;9.07;2.70;;;;;;;18.75;43.00;101589.81;5072674;28;20063;-48
2022/05/14 11:40:21;;;;;;;12.40;3.05;;;;;;;18.77;42.83;101587.00;5073731;28;20115;-47
2022/05/14 11:42:52;;;;;;;10.35;2.90;;;;;;;18.79;42.47;101588.59;5069029;28;20029;-47
2022/05/14 11:45:24;;;;;;;13.45;2.90;;;;;;;18.82;42.76;101595.50;5067874;28;20024;-48
2022/05/14 11:48:02;;;;;;;12.15;2.78;;;;;;;18.84;42.68;101590.91;5069234;28;20480;-47
2022/05/14 11:50:34;;;;;;;13.32;2.65;;;;;;;18.91;42.91;101591.25;5069575;28;20032;-48
2022/05/14 11:53:17;;;;;;;7.75;2.42;;;;;;;18.93;42.55;101592.00;5070453;28;20052;-47
2022/05/14 11:55:54;;;;;;;8.25;2.33;;;;;;;18.97;42.95;101604.16;5068666;28;20008;-47
2022/05/14 11:58:38;;;;;;;10.23;2.50;;;;;;;19.00;42.72;101593.22;5069256;28;20024;-47
2022/05/14 12:01:15;;;;;;;8.05;2.45;;;;;;;19.07;42.22;101582.88;5069022;28;20120;-46
2022/05/14 12:03:46;;;;;;;9.35;2.90;;;;;;;19.09;42.13;101592.50;5069837;28;20029;-48
2022/05/14 12:06:49;;;;;;;11.57;3.03;;;;;;;19.12;42.04;101580.72;5070400;28;20103;-45
2022/05/14 12:09:44;;;;;;;9.27;2.60;;;;;;;19.21;41.50;101590.63;5066599;28;20028;-48
2022/05/14 12:12:09;;;;;;;11.77;2.45;;;;;;;19.26;41.29;101592.94;5066932;28;20041;-47
2022/05/14 12:14:36;;;;;;;9.10;2.45;;;;;;;19.21;41.03;101592.47;5071050;28;20012;-50